Time;durP1;ratioP1;P1;durP2;ratioP2;P2;SDS_P1;SDS_P2;PMS_P1;PMS_P2;Temp;Humidity;BMP_temperature;BMP_pressure;BME280_temperature;BME280_humidity;BME280_pressure;Samples;Min_cycle;Max_cycle;Signal;HPM_P1;HPM_P2
2022/04/20 00:01:04;;;;;;;7.13;2.47;;;;;;;12.88;42.16;101378.75;5029889;27;99101;-71
2022/04/20 00:03:33;;;;;;;5.95;2.60;;;;;;;13.22;41.83;101383.78;5028020;27;98974;-69
2022/04/20 00:06:01;;;;;;;5.57;2.17;;;;;;;12.85;41.95;101385.97;5033758;28;96973;-70
2022/04/20 00:08:27;;;;;;;6.20;2.20;;;;;;;12.83;42.24;101387.81;5030653;28;97018;-69
2022/04/20 00:10:53;;;;;;;4.03;2.13;;;;;;;12.58;43.14;101398.38;5025930;28;99189;-69
2022/04/20 00:13:20;;;;;;;8.18;2.50;;;;;;;12.80;42.70;101399.38;5032279;28;98944;-69
2022/04/20 00:15:46;;;;;;;6.13;2.33;;;;;;;13.19;41.94;101391.88;5033256;28;96873;-69
2022/04/20 00:18:13;;;;;;;4.75;2.28;;;;;;;13.50;41.26;101397.78;5031410;28;98812;-69
2022/04/20 00:20:40;;;;;;;7.90;2.53;;;;;;;13.73;40.75;101388.06;5029580;28;101527;-69
2022/04/20 00:23:08;;;;;;;9.10;2.53;;;;;;;12.93;42.37;101387.41;5030409;28;99341;-70
2022/04/20 00:25:34;;;;;;;5.78;2.17;;;;;;;13.33;41.91;101392.19;5025423;28;96828;-69
2022/04/20 00:28:01;;;;;;;5.78;2.90;;;;;;;12.75;43.22;101391.59;5031469;28;96823;-70
2022/04/20 00:30:27;;;;;;;8.60;2.85;;;;;;;12.76;43.31;101392.47;5025049;27;99334;-70
2022/04/20 00:32:55;;;;;;;5.28;2.50;;;;;;;13.22;42.32;101386.44;5015525;27;97590;-70
2022/04/20 00:35:21;;;;;;;5.20;2.40;;;;;;;12.36;44.33;101395.56;5027017;27;96916;-69
2022/04/20 00:37:48;;;;;;;7.13;2.30;;;;;;;12.75;43.72;101396.03;5028692;27;97259;-70
2022/04/20 00:40:16;;;;;;;8.98;2.90;;;;;;;12.99;43.05;101384.59;5022672;27;97679;-71
2022/04/20 00:42:43;;;;;;;6.80;2.95;;;;;;;13.24;42.79;101383.72;5031096;27;98977;-70
2022/04/20 00:45:11;;;;;;;7.65;2.53;;;;;;;13.00;43.92;101396.91;5028832;27;97816;-70
2022/04/20 00:47:39;;;;;;;9.35;2.78;;;;;;;12.98;43.79;101393.47;5031105;27;97268;-69
2022/04/20 00:50:07;;;;;;;3.13;2.03;;;;;;;12.90;43.91;101390.19;5024135;27;99318;-70
2022/04/20 00:52:33;;;;;;;5.82;2.45;;;;;;;13.13;43.40;101392.06;5023490;27;98826;-70
2022/04/20 00:55:00;;;;;;;7.93;2.70;;;;;;;12.67;44.39;101396.28;5024061;27;96850;-70
2022/04/20 00:57:28;;;;;;;9.55;3.35;;;;;;;12.86;44.28;101393.88;5019068;27;96931;-69
2022/04/20 00:59:57;;;;;;;4.80;2.90;;;;;;;12.23;45.77;101392.44;5025448;27;99763;-70
2022/04/20 01:02:23;;;;;;;7.90;2.55;;;;;;;12.28;45.55;101395.81;5030300;28;98909;-70
2022/04/20 01:04:50;;;;;;;8.10;2.92;;;;;;;12.11;46.06;101399.91;5029331;27;97145;-69
2022/04/20 01:07:18;;;;;;;5.53;2.40;;;;;;;11.94;46.63;101400.47;5031242;27;96838;-69
2022/04/20 01:09:46;;;;;;;11.80;3.65;;;;;;;11.48;47.81;101401.78;5024463;28;99092;-69
2022/04/20 01:12:14;;;;;;;6.25;2.78;;;;;;;11.70;47.53;101391.41;5028930;27;98947;-70
2022/04/20 01:14:43;;;;;;;8.13;2.88;;;;;;;11.82;47.08;101392.84;5026633;27;97277;-68
2022/04/20 01:17:09;;;;;;;6.18;3.05;;;;;;;11.71;47.42;101394.94;5030803;27;97700;-69
2022/04/20 01:19:38;;;;;;;7.53;2.63;;;;;;;11.98;47.00;101399.44;5028694;27;99380;-69
2022/04/20 01:22:08;;;;;;;5.85;3.10;;;;;;;12.47;45.74;101395.22;5024047;27;99080;-70
2022/04/20 01:24:36;;;;;;;6.80;3.15;;;;;;;12.74;45.08;101395.16;5029220;27;97238;-68
2022/04/20 01:27:03;;;;;;;10.50;2.95;;;;;;;12.43;45.35;101388.28;5025923;27;96751;-69
2022/04/20 01:29:30;;;;;;;7.47;3.13;;;;;;;11.93;46.41;101390.78;5026923;27;99071;-70
2022/04/20 01:31:57;;;;;;;6.40;3.20;;;;;;;12.58;45.02;101383.34;5023496;27;99925;-69
2022/04/20 01:34:23;;;;;;;7.05;2.92;;;;;;;12.12;46.03;101381.34;5023484;27;96798;-70
2022/04/20 01:36:50;;;;;;;5.40;2.67;;;;;;;12.45;45.58;101378.50;5023031;27;97347;-69
2022/04/20 01:39:18;;;;;;;11.15;4.43;;;;;;;11.75;46.99;101378.94;5031791;27;101205;-69
2022/04/20 01:41:45;;;;;;;12.13;2.78;;;;;;;11.39;48.20;101386.16;5024618;27;98018;-69
2022/04/20 01:44:11;;;;;;;7.13;2.92;;;;;;;11.52;47.97;101386.69;5020777;27;96788;-69
2022/04/20 01:46:38;;;;;;;5.65;2.50;;;;;;;11.64;47.88;101385.44;5025363;27;96779;-69
2022/04/20 01:49:04;;;;;;;10.13;2.78;;;;;;;12.15;46.43;101389.16;5021778;27;100135;-70
2022/04/20 01:51:51;;;;;;;5.93;2.97;;;;;;;12.00;46.67;101384.38;5026868;27;98938;-70
2022/04/20 01:54:19;;;;;;;5.47;2.83;;;;;;;12.15;46.40;101389.16;5027914;27;96748;-70
2022/04/20 01:56:47;;;;;;;9.90;2.75;;;;;;;12.09;46.88;101389.38;5027285;27;96852;-68
2022/04/20 01:59:14;;;;;;;4.82;2.60;;;;;;;11.87;47.19;101385.66;5024710;27;98910;-69
2022/04/20 02:04:34;;;;;;;6.93;2.85;;;;;;;11.92;47.66;101383.75;5005193;27;96929;-71
2022/04/20 02:07:00;;;;;;;8.43;3.08;;;;;;;12.12;47.08;101376.03;5023915;27;98880;-69
2022/04/20 02:09:28;;;;;;;8.50;3.25;;;;;;;12.29;46.52;101375.47;5020488;28;99273;-69
2022/04/20 02:11:55;;;;;;;9.65;3.10;;;;;;;11.88;47.95;101371.53;5029499;27;97848;-69
2022/04/20 02:14:21;;;;;;;5.90;3.00;;;;;;;11.87;47.49;101372.44;5022813;27;97911;-69
2022/04/20 02:16:47;;;;;;;8.88;3.30;;;;;;;11.83;48.30;101371.63;5029117;28;96883;-68
2022/04/20 02:19:14;;;;;;;6.95;2.90;;;;;;;11.85;47.88;101375.13;5029378;28;102160;-69
2022/04/20 02:21:40;;;;;;;7.00;3.40;;;;;;;11.84;48.04;101373.38;5027597;28;100729;-69
2022/04/20 02:24:07;;;;;;;6.60;2.90;;;;;;;11.81;48.17;101383.22;5016404;27;98710;-69
2022/04/20 02:26:34;;;;;;;9.52;3.10;;;;;;;11.64;48.75;101369.56;5024708;27;97563;-70
2022/04/20 02:29:01;;;;;;;7.97;3.08;;;;;;;11.80;48.49;101370.88;5025600;27;98947;-71
2022/04/20 02:31:28;;;;;;;14.57;3.28;;;;;;;12.38;47.15;101368.13;5022885;27;98955;-72
2022/04/20 02:33:55;;;;;;;8.20;3.45;;;;;;;12.33;46.75;101371.84;5027027;27;97054;-70
2022/04/20 02:36:22;;;;;;;7.43;3.30;;;;;;;12.62;46.11;101368.19;5028248;27;97311;-69
2022/04/20 02:38:50;;;;;;;9.50;3.05;;;;;;;12.81;45.65;101358.69;5025173;27;101578;-70
2022/04/20 02:41:17;;;;;;;10.48;3.42;;;;;;;12.85;45.58;101367.41;5027422;27;99590;-71
2022/04/20 02:43:45;;;;;;;9.50;3.35;;;;;;;12.47;46.54;101369.56;5021732;27;97014;-70
2022/04/20 02:46:12;;;;;;;8.38;3.38;;;;;;;12.69;46.13;101367.06;5027025;27;97094;-70
2022/04/20 02:48:39;;;;;;;7.47;3.33;;;;;;;12.34;46.95;101369.09;5027478;27;96742;-70
2022/04/20 02:51:05;;;;;;;7.65;3.10;;;;;;;12.33;46.77;101367.41;5028009;27;97772;-68
2022/04/20 02:53:32;;;;;;;9.32;3.03;;;;;;;12.58;46.15;101355.97;5024410;27;96901;-70
2022/04/20 02:55:58;;;;;;;9.18;3.22;;;;;;;12.01;47.87;101359.63;5025179;27;97316;-70
2022/04/20 02:58:24;;;;;;;5.57;3.05;;;;;;;11.52;49.13;101366.38;5023348;27;99784;-70
2022/04/20 03:00:52;;;;;;;8.65;3.42;;;;;;;11.83;49.15;101370.78;5025236;27;98368;-69
2022/04/20 03:03:19;;;;;;;6.97;3.13;;;;;;;12.28;47.68;101379.03;5026049;27;96879;-70
2022/04/20 03:05:48;;;;;;;5.72;2.97;;;;;;;12.12;48.13;101377.81;5030677;27;97549;-70
2022/04/20 03:08:15;;;;;;;8.52;3.42;;;;;;;12.43;47.03;101373.25;5028252;27;98870;-69
2022/04/20 03:10:42;;;;;;;8.43;5.00;;;;;;;12.26;47.40;101383.53;5030919;27;100388;-70
2022/04/20 03:13:08;;;;;;;13.98;4.93;;;;;;;12.57;46.81;101380.75;5030876;27;98702;-70
2022/04/20 03:15:34;;;;;;;6.63;3.42;;;;;;;12.13;48.22;101372.47;5033664;28;96891;-70
2022/04/20 03:18:02;;;;;;;10.75;3.58;;;;;;;11.95;49.20;101365.09;5029320;27;99202;-70
2022/04/20 03:20:29;;;;;;;7.88;3.00;;;;;;;12.18;48.49;101361.72;5028617;27;98802;-70
2022/04/20 03:22:55;;;;;;;8.75;3.38;;;;;;;11.84;49.40;101361.91;5023543;27;97743;-70
2022/04/20 03:25:22;;;;;;;11.27;3.88;;;;;;;11.79;49.39;101366.50;5031405;27;96854;-71
2022/04/20 03:27:48;;;;;;;12.70;3.78;;;;;;;11.70;49.64;101367.59;5031366;27;99524;-71
2022/04/20 03:30:15;;;;;;;13.82;4.40;;;;;;;11.60;50.07;101371.44;5027354;27;99008;-70
2022/04/20 03:32:41;;;;;;;7.93;3.47;;;;;;;11.68;50.02;101374.75;5026324;27;96767;-70
2022/04/20 03:35:10;;;;;;;10.40;4.40;;;;;;;11.63;50.33;101373.13;5029229;27;96844;-70
2022/04/20 03:37:36;;;;;;;7.70;3.30;;;;;;;12.13;48.99;101376.91;5030646;27;101243;-71
2022/04/20 03:40:04;;;;;;;10.02;3.28;;;;;;;11.53;50.44;101384.00;5029518;27;99298;-70
2022/04/20 03:42:30;;;;;;;7.90;3.67;;;;;;;12.16;49.33;101377.66;5032974;27;96844;-71
2022/04/20 03:44:57;;;;;;;7.93;3.72;;;;;;;12.49;48.38;101377.47;5032805;27;97291;-71
2022/04/20 03:47:24;;;;;;;11.63;3.90;;;;;;;12.27;48.61;101386.13;5027201;27;99521;-70
2022/04/20 03:49:50;;;;;;;12.60;3.75;;;;;;;12.17;49.18;101392.66;5026468;27;98806;-70
2022/04/20 03:52:18;;;;;;;7.80;4.18;;;;;;;12.52;48.48;101390.63;5030064;27;97470;-70
2022/04/20 03:54:44;;;;;;;9.00;3.80;;;;;;;12.61;47.58;101387.66;5029719;27;99156;-72
2022/04/20 03:57:11;;;;;;;9.50;4.55;;;;;;;12.17;49.13;101383.84;5026520;27;97930;-71
2022/04/20 03:59:38;;;;;;;12.38;4.07;;;;;;;11.98;49.96;101380.91;5030441;27;98795;-70
2022/04/20 04:02:06;;;;;;;9.38;3.85;;;;;;;11.56;51.22;101383.88;5030406;27;96881;-74
2022/04/20 04:04:35;;;;;;;9.68;4.32;;;;;;;11.97;50.52;101377.38;5028031;27;97492;-71
2022/04/20 04:07:02;;;;;;;8.77;4.90;;;;;;;11.70;51.07;101372.03;5025563;27;100934;-71
2022/04/20 04:09:30;;;;;;;12.35;4.30;;;;;;;11.97;50.75;101379.16;5029442;27;102244;-71
2022/04/20 04:11:56;;;;;;;10.10;4.20;;;;;;;11.75;51.43;101378.94;5031601;27;96848;-70
2022/04/20 04:14:22;;;;;;;8.15;4.32;;;;;;;11.40;52.07;101377.31;5030056;27;96865;-70
2022/04/20 04:16:49;;;;;;;6.88;4.07;;;;;;;11.57;52.19;101382.09;5021469;27;102042;-70
2022/04/20 04:19:17;;;;;;;9.20;4.18;;;;;;;12.21;50.51;101374.84;5023223;27;98815;-70
2022/04/20 04:21:43;;;;;;;9.00;4.72;;;;;;;12.06;50.65;101380.66;5029113;27;96867;-71
2022/04/20 04:24:34;;;;;;;15.02;4.43;;;;;;;12.12;50.66;101370.75;5020989;27;97382;-71
2022/04/20 04:26:59;;;;;;;11.07;4.55;;;;;;;12.21;50.36;101365.13;5026467;27;97422;-70
2022/04/20 04:29:26;;;;;;;9.55;4.38;;;;;;;12.30;49.93;101367.50;5017496;27;98830;-70
2022/04/20 04:31:53;;;;;;;10.35;4.32;;;;;;;12.46;49.80;101361.69;5029660;27;97073;-69
2022/04/20 04:34:19;;;;;;;8.57;4.22;;;;;;;12.80;48.99;101364.91;5031764;27;97836;-68
2022/04/20 04:36:46;;;;;;;9.35;4.72;;;;;;;12.05;50.69;101363.91;5030107;27;98965;-69
2022/04/20 04:39:14;;;;;;;9.90;4.50;;;;;;;12.61;49.40;101358.50;5031142;27;101136;-69
2022/04/20 04:41:42;;;;;;;7.95;4.55;;;;;;;13.06;48.30;101359.53;5028124;27;96823;-70
2022/04/20 04:44:09;;;;;;;12.70;5.50;;;;;;;12.84;48.44;101350.63;5023295;27;97337;-69
2022/04/20 04:49:20;;;;;;;11.32;4.53;;;;;;;12.79;49.00;101360.53;5030093;28;96845;-67
2022/04/20 04:51:46;;;;;;;8.82;4.50;;;;;;;13.35;47.81;101362.97;5024649;27;97198;-68
2022/04/20 04:54:13;;;;;;;10.85;4.78;;;;;;;13.14;48.23;101367.25;5028592;27;97529;-68
2022/04/20 04:56:39;;;;;;;10.32;4.68;;;;;;;12.78;48.98;101375.59;5027890;27;98900;-68
2022/04/20 04:59:07;;;;;;;9.02;4.50;;;;;;;12.51;49.60;101365.91;5029322;27;97495;-68
2022/04/20 05:01:41;;;;;;;10.00;4.82;;;;;;;12.08;51.49;101366.44;5029257;27;96887;-70
2022/04/20 05:04:08;;;;;;;12.02;5.47;;;;;;;12.20;51.22;101365.19;5025114;27;97202;-70
2022/04/20 05:06:35;;;;;;;11.50;5.28;;;;;;;12.20;50.86;101360.78;5028588;27;98974;-69
2022/04/20 05:09:02;;;;;;;13.13;5.25;;;;;;;13.04;48.67;101371.16;5026243;27;99307;-69
2022/04/20 05:11:28;;;;;;;10.73;5.90;;;;;;;12.59;49.50;101371.84;5024803;27;96904;-69
2022/04/20 05:13:55;;;;;;;11.02;5.15;;;;;;;12.65;49.62;101368.97;5030484;27;96844;-68
2022/04/20 05:16:22;;;;;;;8.15;4.93;;;;;;;12.35;50.53;101376.16;5028609;27;98400;-69
2022/04/20 05:18:51;;;;;;;10.77;5.28;;;;;;;12.82;49.31;101378.13;5021837;27;98972;-68
2022/04/20 05:21:17;;;;;;;12.30;5.40;;;;;;;12.28;50.74;101379.91;5028829;27;96831;-69
2022/04/20 05:23:44;;;;;;;10.48;5.13;;;;;;;12.01;51.51;101372.00;5021923;27;96892;-68
2022/04/20 05:26:11;;;;;;;10.55;5.15;;;;;;;12.39;50.49;101374.28;5024690;27;99395;-67
2022/04/20 05:28:37;;;;;;;11.00;4.85;;;;;;;13.11;48.53;101373.53;5025631;27;98777;-68
2022/04/20 05:31:03;;;;;;;10.45;5.20;;;;;;;13.05;48.82;101373.75;5023582;27;98599;-67
2022/04/20 05:33:30;;;;;;;8.10;4.70;;;;;;;13.23;48.48;101368.72;5020061;27;97463;-67
2022/04/20 05:35:58;;;;;;;11.40;4.72;;;;;;;14.02;46.36;101374.53;5024822;27;98952;-67
2022/04/20 05:44:07;;;;;;;9.73;5.28;;;;;;;12.67;49.58;101380.38;4965158;28;97669;-69
2022/04/20 05:46:34;;;;;;;9.93;5.70;;;;;;;12.50;50.39;101379.22;4968679;28;97940;-68
2022/04/20 05:49:01;;;;;;;10.30;5.32;;;;;;;12.60;49.78;101380.66;4987679;27;98853;-69
2022/04/20 05:51:29;;;;;;;19.02;6.30;;;;;;;13.19;48.85;101381.25;5023474;28;97112;-69
2022/04/20 05:53:55;;;;;;;13.18;5.75;;;;;;;13.59;47.55;101385.09;5019032;27;96932;-70
2022/04/20 05:56:22;;;;;;;11.60;5.18;;;;;;;13.72;46.95;101373.06;5026237;27;102262;-69
2022/04/20 05:58:52;;;;;;;19.95;5.70;;;;;;;13.40;47.44;101380.44;5024524;27;98859;-69
2022/04/20 06:01:19;;;;;;;13.80;5.13;;;;;;;13.22;48.10;101388.22;5021402;27;96823;-68
2022/04/20 06:03:45;;;;;;;10.02;5.18;;;;;;;12.20;50.49;101387.25;5022622;27;98660;-69
2022/04/20 06:06:12;;;;;;;14.60;5.28;;;;;;;12.30;50.71;101391.34;5026236;27;99717;-69
2022/04/20 06:08:40;;;;;;;13.98;5.40;;;;;;;13.09;48.93;101387.75;5018975;27;98474;-67
2022/04/20 06:11:06;;;;;;;10.55;5.35;;;;;;;13.01;48.73;101395.97;5019405;27;98055;-69
2022/04/20 06:13:33;;;;;;;12.40;5.22;;;;;;;13.04;48.66;101395.91;5019753;27;99302;-68
2022/04/20 06:16:00;;;;;;;9.02;4.70;;;;;;;13.38;47.82;101394.72;5022324;27;99318;-68
2022/04/20 06:18:26;;;;;;;9.30;4.70;;;;;;;13.28;47.83;101395.94;5023417;28;99130;-68
2022/04/20 06:20:53;;;;;;;15.45;5.78;;;;;;;13.19;48.16;101406.91;5020732;27;98952;-68
2022/04/20 06:23:22;;;;;;;13.20;5.50;;;;;;;13.56;47.41;101400.19;5022654;27;97675;-69
2022/04/20 06:25:53;;;;;;;10.63;4.97;;;;;;;13.49;46.85;101404.00;5021978;27;99171;-69
2022/04/20 06:28:19;;;;;;;7.97;4.68;;;;;;;13.73;47.02;101390.72;5023914;27;99671;-69
2022/04/20 06:30:46;;;;;;;10.95;5.13;;;;;;;13.31;47.47;101395.84;5023899;27;96927;-69
2022/04/20 06:33:12;;;;;;;10.20;5.38;;;;;;;13.00;47.95;101396.91;5022874;27;97313;-70
2022/04/20 06:35:39;;;;;;;12.63;5.38;;;;;;;12.93;48.19;101383.94;5023226;27;102229;-69
2022/04/20 06:38:06;;;;;;;8.20;4.95;;;;;;;13.41;46.72;101387.50;5024651;27;99335;-69
2022/04/20 06:40:32;;;;;;;17.98;5.32;;;;;;;13.77;45.80;101392.34;5021729;27;97544;-69
2022/04/20 06:43:00;;;;;;;8.80;5.20;;;;;;;13.67;45.76;101391.81;5024303;27;97250;-69
2022/04/20 06:45:26;;;;;;;7.15;4.38;;;;;;;13.80;45.49;101387.78;5025010;27;98394;-69
2022/04/20 06:47:53;;;;;;;10.07;5.07;;;;;;;13.10;46.75;101385.06;5027275;27;98925;-71
2022/04/20 06:50:20;;;;;;;9.18;4.90;;;;;;;12.91;46.95;101378.69;5025453;27;97516;-70
2022/04/20 06:58:35;;;;;;;19.35;4.90;;;;;;;14.05;44.67;101384.13;5008671;27;99796;-69
2022/04/20 07:01:04;;;;;;;9.70;4.55;;;;;;;14.12;43.76;101375.88;5001452;27;100540;-70
2022/04/20 07:03:31;;;;;;;13.68;4.65;;;;;;;13.64;44.73;101376.00;5021102;27;96983;-71
2022/04/20 07:05:58;;;;;;;8.40;4.20;;;;;;;13.54;45.37;101382.59;5023274;27;99190;-70
2022/04/20 07:08:24;;;;;;;12.88;5.25;;;;;;;13.65;44.94;101380.41;5019870;27;98919;-69
2022/04/20 07:10:51;;;;;;;10.98;5.30;;;;;;;13.93;44.24;101372.22;5021100;27;97865;-70
2022/04/20 07:13:17;;;;;;;8.38;4.68;;;;;;;13.71;44.26;101380.19;5020172;27;98951;-69
2022/04/20 07:15:45;;;;;;;5.55;4.25;;;;;;;13.40;45.24;101379.56;5019748;27;100728;-69
2022/04/20 07:18:12;;;;;;;6.72;4.47;;;;;;;13.63;44.94;101376.94;5015219;27;99570;-69
2022/04/20 07:20:39;;;;;;;8.88;4.13;;;;;;;13.55;45.25;101384.31;5024955;27;98094;-70
2022/04/20 07:23:05;;;;;;;9.55;4.25;;;;;;;14.43;43.42;101375.53;5017865;27;97294;-70
2022/04/20 07:25:32;;;;;;;10.88;4.43;;;;;;;14.25;43.57;101378.91;5021792;27;100358;-69
2022/04/20 07:27:59;;;;;;;7.25;4.13;;;;;;;14.28;43.33;101387.63;5020619;27;99293;-69
2022/04/20 07:30:26;;;;;;;5.85;3.90;;;;;;;13.82;43.78;101388.59;5018886;27;98988;-68
2022/04/20 07:32:54;;;;;;;5.93;3.70;;;;;;;13.29;44.65;101395.03;5021293;27;97594;-69
2022/04/20 07:35:20;;;;;;;6.03;3.72;;;;;;;13.15;45.55;101392.88;5017317;27;99276;-69
2022/04/20 07:37:47;;;;;;;11.90;3.95;;;;;;;13.80;44.52;101386.91;5019902;27;99343;-69
2022/04/20 07:40:14;;;;;;;7.13;3.88;;;;;;;14.71;42.12;101381.41;5019756;27;98957;-69
2022/04/20 07:42:40;;;;;;;6.70;4.00;;;;;;;15.00;41.20;101379.31;5019263;27;98778;-69
2022/04/20 07:45:08;;;;;;;12.93;3.78;;;;;;;14.77;41.31;101385.59;5020330;27;98966;-69
2022/04/20 07:47:34;;;;;;;12.45;3.88;;;;;;;15.02;40.84;101385.44;5018901;27;98805;-70
2022/04/20 07:50:23;;;;;;;7.50;3.78;;;;;;;15.41;39.92;101383.66;5018111;27;98208;-69
2022/04/20 07:52:52;;;;;;;9.00;3.97;;;;;;;14.69;41.15;101388.63;5017039;27;98666;-71
2022/04/20 07:55:21;;;;;;;9.60;3.95;;;;;;;14.25;42.21;101386.88;5019285;27;99606;-69
2022/04/20 07:57:48;;;;;;;7.47;4.10;;;;;;;14.25;42.03;101381.56;5021127;27;98861;-69
2022/04/20 08:00:16;;;;;;;7.97;4.18;;;;;;;15.19;40.24;101382.00;5020689;28;97799;-72
2022/04/20 08:02:43;;;;;;;6.85;3.47;;;;;;;15.26;39.26;101373.69;5010333;27;97787;-69
2022/04/20 08:05:12;;;;;;;11.25;3.80;;;;;;;15.26;39.39;101368.38;5023973;27;98156;-69
2022/04/20 08:07:39;;;;;;;8.07;4.40;;;;;;;15.65;38.42;101371.03;5019466;27;98836;-70
2022/04/20 08:10:08;;;;;;;5.78;3.53;;;;;;;15.86;36.88;101369.16;5024078;27;97411;-69
2022/04/20 08:12:39;;;;;;;5.28;3.33;;;;;;;15.77;37.05;101380.25;5021319;27;96855;-70
2022/04/20 08:15:07;;;;;;;7.38;3.42;;;;;;;16.00;36.64;101373.84;5023571;27;98345;-69
2022/04/20 08:17:34;;;;;;;8.00;3.60;;;;;;;16.39;35.94;101373.69;5024228;27;99518;-69
2022/04/20 08:20:01;;;;;;;6.82;3.97;;;;;;;16.43;35.83;101381.47;5024875;27;99657;-69
2022/04/20 08:22:28;;;;;;;8.80;3.08;;;;;;;15.80;35.69;101377.44;5024627;27;98746;-70
2022/04/20 08:24:56;;;;;;;10.63;3.60;;;;;;;16.38;34.29;101377.28;5025219;27;98959;-70
2022/04/20 08:27:23;;;;;;;7.90;2.90;;;;;;;16.28;34.37;101383.06;5019416;27;100709;-69
2022/04/20 08:29:51;;;;;;;3.13;2.00;;;;;;;15.40;33.85;101373.06;5024940;27;97553;-69
2022/04/20 08:32:18;;;;;;;6.20;2.40;;;;;;;15.52;34.30;101372.50;5021711;27;97504;-71
2022/04/20 08:34:45;;;;;;;7.75;3.25;;;;;;;16.60;32.36;101367.31;5023456;27;99103;-69
2022/04/20 08:37:12;;;;;;;8.40;3.50;;;;;;;16.07;33.64;101370.81;5019709;27;99886;-69
2022/04/20 08:39:40;;;;;;;8.88;3.70;;;;;;;16.21;32.96;101373.63;5023706;27;96964;-69
2022/04/20 08:42:07;;;;;;;4.88;2.70;;;;;;;15.81;33.21;101365.84;5022298;27;98575;-68
2022/04/20 08:44:38;;;;;;;5.00;3.10;;;;;;;15.29;33.90;101368.25;5022642;27;101230;-71
2022/04/20 08:47:07;;;;;;;6.53;4.38;;;;;;;15.28;33.85;101373.63;5022259;27;100354;-70
2022/04/20 08:49:34;;;;;;;3.10;1.92;;;;;;;15.41;33.57;101369.47;5023397;27;96924;-69
2022/04/20 08:54:48;;;;;;;8.52;2.10;;;;;;;15.94;33.01;101367.88;5021843;27;98808;-70
2022/04/20 08:57:18;;;;;;;6.70;2.25;;;;;;;15.75;33.64;101372.31;5020232;27;98947;-68
2022/04/20 08:59:46;;;;;;;4.95;2.10;;;;;;;14.96;34.96;101377.72;5021874;27;96860;-69
2022/04/20 09:02:13;;;;;;;2.88;1.65;;;;;;;15.27;34.88;101375.41;5022477;28;98694;-69
2022/04/20 09:04:40;;;;;;;9.65;2.30;;;;;;;15.07;35.40;101364.78;5023875;28;101849;-70
2022/04/20 09:07:08;;;;;;;4.15;1.88;;;;;;;14.73;37.31;101376.91;5020827;27;99014;-70
2022/04/20 09:09:35;;;;;;;5.93;2.20;;;;;;;14.70;37.85;101379.69;5025371;27;97388;-68
2022/04/20 09:12:07;;;;;;;4.22;1.90;;;;;;;14.87;37.04;101376.31;5023495;27;97375;-70
2022/04/20 09:14:35;;;;;;;3.97;2.33;;;;;;;14.88;37.18;101385.16;5023411;27;99041;-70
2022/04/20 09:17:02;;;;;;;5.07;2.00;;;;;;;14.69;38.01;101377.97;5024864;27;101258;-70
2022/04/20 09:19:29;;;;;;;3.08;1.80;;;;;;;15.10;38.30;101372.63;5021855;27;97289;-69
2022/04/20 09:21:56;;;;;;;3.22;1.83;;;;;;;14.54;39.73;101375.09;5021463;27;96926;-68
2022/04/20 09:24:23;;;;;;;5.75;2.28;;;;;;;15.15;38.94;101371.50;5021468;27;101548;-70
2022/04/20 09:26:54;;;;;;;3.72;2.05;;;;;;;14.80;40.44;101384.63;5021071;28;98459;-70
2022/04/20 09:29:22;;;;;;;4.20;2.00;;;;;;;15.03;39.96;101382.69;5020231;27;98450;-70
2022/04/20 09:31:50;;;;;;;5.22;2.42;;;;;;;14.96;40.55;101389.22;5024485;28;98843;-69
2022/04/20 09:34:53;;;;;;;7.03;3.33;;;;;;;14.65;41.88;101389.66;5021744;27;98420;-69
2022/04/20 09:37:21;;;;;;;4.00;2.03;;;;;;;14.83;42.34;101390.69;5019330;27;99054;-70
2022/04/20 09:39:49;;;;;;;5.75;2.00;;;;;;;15.18;41.90;101385.59;5022510;27;99331;-68
2022/04/20 09:42:16;;;;;;;5.10;2.40;;;;;;;15.52;41.73;101380.50;5021921;27;96920;-69
2022/04/20 09:44:55;;;;;;;4.93;2.08;;;;;;;15.87;40.80;101371.75;5023298;27;100442;-69
2022/04/20 09:50:07;;;;;;;5.05;2.42;;;;;;;16.39;39.39;101373.69;5005104;27;97529;-69
2022/04/20 09:52:37;;;;;;;3.75;2.25;;;;;;;16.48;39.29;101367.88;5021475;27;98514;-69
2022/04/20 09:55:06;;;;;;;3.28;2.58;;;;;;;16.80;39.89;101367.16;5019718;28;97791;-70
2022/04/20 09:57:33;;;;;;;4.32;2.15;;;;;;;17.12;39.02;101362.81;5022415;27;99023;-69
2022/04/20 10:00:03;;;;;;;8.77;2.70;;;;;;;16.88;39.22;101367.63;5027544;27;97171;-69
2022/04/20 10:02:30;;;;;;;5.95;2.33;;;;;;;16.89;37.67;101372.03;5014164;27;98594;-70
2022/04/20 10:04:58;;;;;;;7.28;3.47;;;;;;;16.19;39.44;101370.22;5021642;27;97861;-68
2022/04/20 10:07:24;;;;;;;3.63;1.90;;;;;;;16.85;38.81;101366.94;5025284;27;99914;-70
2022/04/20 10:09:51;;;;;;;3.05;2.22;;;;;;;16.67;38.38;101371.41;5023618;27;97401;-70
2022/04/20 10:12:19;;;;;;;6.57;2.30;;;;;;;17.17;37.84;101360.75;5024714;27;97454;-70
2022/04/20 10:17:44;;;;;;;4.97;2.80;;;;;;;16.44;40.06;101369.84;5018815;27;96990;-71
2022/04/20 10:20:11;;;;;;;19.38;3.78;;;;;;;16.99;39.77;101367.06;5025895;27;97282;-71
2022/04/20 10:22:38;;;;;;;5.00;2.55;;;;;;;17.40;38.43;101360.38;5024364;27;96933;-69
2022/04/20 10:25:07;;;;;;;10.50;3.25;;;;;;;17.72;38.39;101364.00;5022832;27;98046;-70
2022/04/20 10:27:45;;;;;;;8.48;2.50;;;;;;;17.61;36.97;101349.50;5020441;28;103354;-69
2022/04/20 10:30:16;;;;;;;6.30;2.63;;;;;;;18.19;37.58;101341.72;5025721;27;96842;-69
2022/04/20 10:32:51;;;;;;;4.40;1.88;;;;;;;18.15;36.78;101326.81;5025175;27;97051;-69
2022/04/20 10:35:18;;;;;;;8.07;2.92;;;;;;;18.35;37.24;101326.53;5021497;28;98910;-69
2022/04/20 10:38:07;;;;;;;13.30;3.47;;;;;;;18.21;37.61;101313.09;5022427;28;99513;-68
2022/04/20 10:40:34;;;;;;;7.40;2.70;;;;;;;17.58;38.06;101310.44;5022132;28;97733;-69
2022/04/20 10:43:20;;;;;;;6.55;2.80;;;;;;;17.42;38.67;101312.22;5022995;27;98740;-69
2022/04/20 10:46:06;;;;;;;7.93;2.67;;;;;;;17.15;39.11;101303.91;5019031;28;98647;-70
2022/04/20 10:48:58;;;;;;;7.20;2.42;;;;;;;17.05;40.33;101310.69;5022503;27;98778;-69
2022/04/20 10:51:36;;;;;;;7.53;2.33;;;;;;;16.94;39.52;101310.38;5022012;27;97195;-71
2022/04/20 10:54:24;;;;;;;25.55;2.50;;;;;;;17.05;39.40;101300.88;5020774;27;97473;-70
2022/04/20 10:57:10;;;;;;;6.63;2.15;;;;;;;17.08;39.70;101300.69;5019490;27;97824;-70
2022/04/20 10:59:39;;;;;;;6.43;2.55;;;;;;;17.00;39.36;101286.88;5019877;27;98831;-69
2022/04/20 11:02:08;;;;;;;3.65;2.03;;;;;;;16.98;39.73;101291.47;5020292;27;98852;-69
2022/04/20 11:04:39;;;;;;;6.20;2.40;;;;;;;17.46;38.99;101282.56;5021510;27;98286;-68
2022/04/20 11:07:23;;;;;;;17.40;6.63;;;;;;;17.62;38.67;101279.94;5018955;27;99372;-69
2022/04/20 11:09:57;;;;;;;6.65;2.63;;;;;;;17.93;37.99;101284.41;5022362;27;98768;-69
2022/04/20 11:21:17;;;;;;;6.10;3.10;;;;;;;17.77;37.38;101270.19;5021871;27;99131;-70
2022/04/20 11:23:57;;;;;;;8.75;3.60;;;;;;;17.78;37.72;101274.59;5021058;27;96762;-70
2022/04/20 11:26:27;;;;;;;9.20;3.85;;;;;;;17.10;39.51;101280.13;5025067;27;97653;-69
2022/04/20 11:28:55;;;;;;;5.63;2.85;;;;;;;17.68;37.68;101287.63;5022479;27;99638;-70
2022/04/20 11:31:21;;;;;;;9.27;3.00;;;;;;;17.90;36.83;101280.13;5026066;27;97985;-70
2022/04/20 11:33:48;;;;;;;9.55;3.13;;;;;;;17.95;36.62;101282.50;5025276;27;96883;-69
2022/04/20 11:36:17;;;;;;;5.90;2.63;;;;;;;18.33;37.16;101277.59;5024189;27;97454;-70
2022/04/20 11:38:45;;;;;;;4.50;2.13;;;;;;;17.88;36.77;101275.78;5021974;28;98855;-69
2022/04/20 11:41:12;;;;;;;2.65;1.98;;;;;;;17.31;37.78;101262.06;5026529;27;99813;-69
2022/04/20 11:43:39;;;;;;;5.18;2.50;;;;;;;17.74;37.35;101255.19;5022318;28;98219;-69
2022/04/20 11:46:07;;;;;;;3.58;2.47;;;;;;;16.22;39.60;101257.19;5020585;27;98207;-69
2022/04/20 11:48:35;;;;;;;5.38;2.85;;;;;;;17.68;37.98;101252.00;5021016;27;98905;-69
2022/04/20 11:51:03;;;;;;;4.72;2.08;;;;;;;18.15;37.01;101246.59;5023834;27;100426;-70
2022/04/20 11:53:35;;;;;;;3.42;2.20;;;;;;;17.17;38.22;101250.41;5025041;28;96823;-69
2022/04/20 11:56:03;;;;;;;8.77;2.10;;;;;;;18.25;37.36;101247.75;5021042;27;97353;-70
2022/04/20 11:58:30;;;;;;;5.97;2.58;;;;;;;18.37;36.48;101247.03;5024553;27;99390;-69
2022/04/20 12:01:01;;;;;;;4.07;2.15;;;;;;;17.95;36.95;101244.22;5019686;27;99398;-69